sensor_id;sensor_type;location;lat;lon;timestamp;pressure;altitude;pressure_sealevel;temperature;humidity
67457;BME280;54319;52.038;4.640;2023-07-28T00:02:00;100550.59;;;17.88;100.00
67457;BME280;54319;52.038;4.640;2023-07-28T00:04:27;100543.41;;;17.82;100.00
67457;BME280;54319;52.038;4.640;2023-07-28T00:06:55;100547.00;;;17.87;100.00
67457;BME280;54319;52.038;4.640;2023-07-28T00:09:21;100552.25;;;17.89;100.00
67457;BME280;54319;52.038;4.640;2023-07-28T00:11:49;100556.94;;;17.88;100.00
67457;BME280;54319;52.038;4.640;2023-07-28T00:14:15;100532.28;;;17.71;100.00
67457;BME280;54319;52.038;4.640;2023-07-28T00:16:42;100557.78;;;17.89;100.00
67457;BME280;54319;52.038;4.640;2023-07-28T00:19:08;100551.16;;;17.90;100.00
67457;BME280;54319;52.038;4.640;2023-07-28T00:21:35;100541.44;;;17.82;100.00
67457;BME280;54319;52.038;4.640;2023-07-28T00:24:03;100530.94;;;17.79;100.00
67457;BME280;54319;52.038;4.640;2023-07-28T00:26:30;100541.44;;;17.82;100.00
67457;BME280;54319;52.038;4.640;2023-07-28T00:28:56;100543.09;;;17.83;100.00
67457;BME280;54319;52.038;4.640;2023-07-28T00:31:24;100548.63;;;17.83;100.00
67457;BME280;54319;52.038;4.640;2023-07-28T00:33:51;100536.78;;;17.83;100.00
67457;BME280;54319;52.038;4.640;2023-07-28T00:36:18;100551.16;;;17.90;100.00
67457;BME280;54319;52.038;4.640;2023-07-28T00:38:46;100552.25;;;17.89;100.00
67457;BME280;54319;52.038;4.640;2023-07-28T00:41:14;100547.84;;;17.88;100.00
67457;BME280;54319;52.038;4.640;2023-07-28T00:43:41;100552.25;;;17.89;100.00
67457;BME280;54319;52.038;4.640;2023-07-28T00:46:08;100512.94;;;17.61;100.00
67457;BME280;54319;52.038;4.640;2023-07-28T00:48:36;100538.66;;;17.77;100.00
67457;BME280;54319;52.038;4.640;2023-07-28T00:51:03;100552.25;;;17.89;100.00
67457;BME280;54319;52.038;4.640;2023-07-28T00:53:30;100546.72;;;17.89;100.00
67457;BME280;54319;52.038;4.640;2023-07-28T00:55:56;100556.09;;;17.88;100.00
67457;BME280;54319;52.038;4.640;2023-07-28T00:58:25;100542.84;;;17.85;100.00
67457;BME280;54319;52.038;4.640;2023-07-28T01:00:52;100546.72;;;17.89;100.00
67457;BME280;54319;52.038;4.640;2023-07-28T01:03:20;100556.09;;;17.88;100.00
67457;BME280;54319;52.038;4.640;2023-07-28T01:05:52;100554.72;;;17.90;100.00
67457;BME280;54319;52.038;4.640;2023-07-28T01:08:27;100550.31;;;17.89;100.00
67457;BME280;54319;52.038;4.640;2023-07-28T01:10:56;100537.88;;;17.82;100.00
67457;BME280;54319;52.038;4.640;2023-07-28T01:13:22;100553.06;;;17.89;100.00
67457;BME280;54319;52.038;4.640;2023-07-28T01:16:01;100538.72;;;17.87;100.00
67457;BME280;54319;52.038;4.640;2023-07-28T01:18:28;100548.66;;;17.93;100.00
67457;BME280;54319;52.038;4.640;2023-07-28T01:20:56;100539.56;;;17.88;100.00
67457;BME280;54319;52.038;4.640;2023-07-28T01:23:32;100551.72;;;17.92;100.00
67457;BME280;54319;52.038;4.640;2023-07-28T01:26:06;100559.44;;;17.95;100.00
67457;BME280;54319;52.038;4.640;2023-07-28T01:28:36;100532.84;;;17.73;100.00
67457;BME280;54319;52.038;4.640;2023-07-28T01:31:04;100545.88;;;17.83;100.00
67457;BME280;54319;52.038;4.640;2023-07-28T01:33:32;100552.25;;;17.89;100.00
67457;BME280;54319;52.038;4.640;2023-07-28T01:35:58;100541.13;;;17.78;100.00
67457;BME280;54319;52.038;4.640;2023-07-28T01:38:26;100538.97;;;17.81;100.00
67457;BME280;54319;52.038;4.640;2023-07-28T01:40:54;100551.16;;;17.90;100.00
67457;BME280;54319;52.038;4.640;2023-07-28T01:43:21;100553.38;;;17.93;100.00
67457;BME280;54319;52.038;4.640;2023-07-28T01:45:52;100541.75;;;17.86;100.00
67457;BME280;54319;52.038;4.640;2023-07-28T01:48:18;100547.84;;;17.88;100.00
67457;BME280;54319;52.038;4.640;2023-07-28T01:50:45;100532.06;;;17.78;100.00
67457;BME280;54319;52.038;4.640;2023-07-28T01:53:12;100568.84;;;17.94;100.00
67457;BME280;54319;52.038;4.640;2023-07-28T01:55:38;100556.09;;;17.88;100.00
67457;BME280;54319;52.038;4.640;2023-07-28T01:58:05;100565.53;;;17.97;100.00
67457;BME280;54319;52.038;4.640;2023-07-28T02:00:31;100556.97;;;17.99;100.00
67457;BME280;54319;52.038;4.640;2023-07-28T02:02:59;100549.53;;;17.99;100.00
67457;BME280;54319;52.038;4.640;2023-07-28T02:05:27;100553.94;;;18.00;100.00
67457;BME280;54319;52.038;4.640;2023-07-28T02:07:54;100548.13;;;17.97;100.00
67457;BME280;54319;52.038;4.640;2023-07-28T02:10:22;100555.31;;;17.98;100.00
67457;BME280;54319;52.038;4.640;2023-07-28T02:12:48;100556.69;;;17.95;100.00
67457;BME280;54319;52.038;4.640;2023-07-28T02:15:15;100545.09;;;17.93;100.00
67457;BME280;54319;52.038;4.640;2023-07-28T02:17:42;100535.13;;;17.87;100.00
67457;BME280;54319;52.038;4.640;2023-07-28T02:20:10;100554.50;;;17.97;100.00
67457;BME280;54319;52.038;4.640;2023-07-28T02:22:38;100555.91;;;18.00;100.00
67457;BME280;54319;52.038;4.640;2023-07-28T02:25:05;100549.78;;;17.98;100.00
67457;BME280;54319;52.038;4.640;2023-07-28T02:27:32;100532.94;;;17.89;100.00
67457;BME280;54319;52.038;4.640;2023-07-28T02:29:59;100527.13;;;17.85;100.00
67457;BME280;54319;52.038;4.640;2023-07-28T02:32:29;100550.13;;;18.06;100.00
67457;BME280;54319;52.038;4.640;2023-07-28T02:34:56;100554.28;;;18.04;100.00
67457;BME280;54319;52.038;4.640;2023-07-28T02:37:24;100552.09;;;18.06;100.00
67457;BME280;54319;52.038;4.640;2023-07-28T02:39:51;100560.91;;;18.08;100.00
67457;BME280;54319;52.038;4.640;2023-07-28T02:42:18;100557.31;;;18.07;100.00
67457;BME280;54319;52.038;4.640;2023-07-28T02:44:44;100535.16;;;17.97;100.00
67457;BME280;54319;52.038;4.640;2023-07-28T02:47:11;100564.50;;;18.14;100.00
67457;BME280;54319;52.038;4.640;2023-07-28T02:49:40;100498.38;;;17.71;100.00
67457;BME280;54319;52.038;4.640;2023-07-28T02:52:07;100561.72;;;18.08;100.00
67457;BME280;54319;52.038;4.640;2023-07-28T02:54:35;100536.81;;;17.93;100.00
67457;BME280;54319;52.038;4.640;2023-07-28T02:57:02;100565.59;;;18.07;100.00
67457;BME280;54319;52.038;4.640;2023-07-28T02:59:32;100560.63;;;18.04;100.00
67457;BME280;54319;52.038;4.640;2023-07-28T03:02:00;100564.22;;;18.05;100.00
67457;BME280;54319;52.038;4.640;2023-07-28T03:04:26;100548.66;;;17.93;100.00
67457;BME280;54319;52.038;4.640;2023-07-28T03:06:53;100564.16;;;18.00;100.00
67457;BME280;54319;52.038;4.640;2023-07-28T03:09:19;100571.38;;;18.01;100.00
67457;BME280;54319;52.038;4.640;2023-07-28T03:11:48;100571.03;;;17.97;100.00
67457;BME280;54319;52.038;4.640;2023-07-28T03:14:14;100567.16;;;17.93;100.00
67457;BME280;54319;52.038;4.640;2023-07-28T03:16:42;100578.78;;;18.00;100.00
67457;BME280;54319;52.038;4.640;2023-07-28T03:19:09;100569.91;;;17.88;100.00
67457;BME280;54319;52.038;4.640;2023-07-28T03:21:35;100582.34;;;17.96;100.00
67457;BME280;54319;52.038;4.640;2023-07-28T03:24:03;100581.81;;;17.99;100.00
67457;BME280;54319;52.038;4.640;2023-07-28T03:26:29;100578.22;;;17.98;100.00
67457;BME280;54319;52.038;4.640;2023-07-28T03:28:57;100567.97;;;17.93;100.00
67457;BME280;54319;52.038;4.640;2023-07-28T03:31:24;100569.94;;;17.93;100.00
67457;BME280;54319;52.038;4.640;2023-07-28T03:33:52;100568.84;;;17.99;100.00
67457;BME280;54319;52.038;4.640;2023-07-28T03:36:26;100508.19;;;17.51;100.00
67457;BME280;54319;52.038;4.640;2023-07-28T03:38:56;100581.25;;;17.97;100.00
67457;BME280;54319;52.038;4.640;2023-07-28T03:41:22;100580.47;;;18.01;100.00
67457;BME280;54319;52.038;4.640;2023-07-28T03:43:49;100578.22;;;17.93;100.00
67457;BME280;54319;52.038;4.640;2023-07-28T03:46:17;100558.28;;;17.81;100.00
67457;BME280;54319;52.038;4.640;2023-07-28T03:48:44;100586.00;;;18.01;100.00
67457;BME280;54319;52.038;4.640;2023-07-28T03:51:10;100580.41;;;17.91;100.00
67457;BME280;54319;52.038;4.640;2023-07-28T03:53:37;100587.59;;;17.97;100.00
67457;BME280;54319;52.038;4.640;2023-07-28T03:56:04;100593.47;;;18.01;100.00
67457;BME280;54319;52.038;4.640;2023-07-28T03:58:42;100599.75;;;17.96;100.00
67457;BME280;54319;52.038;4.640;2023-07-28T04:01:13;100607.75;;;17.98;100.00
67457;BME280;54319;52.038;4.640;2023-07-28T04:03:41;100606.63;;;17.99;100.00
67457;BME280;54319;52.038;4.640;2023-07-28T04:06:09;100605.81;;;17.98;100.00
67457;BME280;54319;52.038;4.640;2023-07-28T04:08:37;100612.50;;;18.02;100.00
67457;BME280;54319;52.038;4.640;2023-07-28T04:11:04;100599.78;;;18.01;100.00
67457;BME280;54319;52.038;4.640;2023-07-28T04:13:31;100611.69;;;18.02;100.00
67457;BME280;54319;52.038;4.640;2023-07-28T04:15:58;100593.47;;;18.01;100.00
67457;BME280;54319;52.038;4.640;2023-07-28T04:18:32;100595.94;;;18.02;100.00
67457;BME280;54319;52.038;4.640;2023-07-28T04:21:00;100598.09;;;18.00;100.00
67457;BME280;54319;52.038;4.640;2023-07-28T04:23:26;100592.94;;;18.04;100.00
67457;BME280;54319;52.038;4.640;2023-07-28T04:25:53;100591.81;;;18.05;100.00
67457;BME280;54319;52.038;4.640;2023-07-28T04:28:23;100592.59;;;18.00;100.00
67457;BME280;54319;52.038;4.640;2023-07-28T04:30:50;100598.16;;;18.05;100.00
67457;BME280;54319;52.038;4.640;2023-07-28T04:33:17;100606.44;;;18.05;100.00
67457;BME280;54319;52.038;4.640;2023-07-28T04:35:43;100600.66;;;18.02;100.00
67457;BME280;54319;52.038;4.640;2023-07-28T04:38:18;100605.09;;;18.08;100.00
67457;BME280;54319;52.038;4.640;2023-07-28T04:40:44;100608.41;;;18.10;100.00
67457;BME280;54319;52.038;4.640;2023-07-28T04:43:11;100612.53;;;18.13;100.00
67457;BME280;54319;52.038;4.640;2023-07-28T04:45:38;100612.28;;;18.14;100.00
67457;BME280;54319;52.038;4.640;2023-07-28T04:48:05;100599.25;;;18.04;100.00
67457;BME280;54319;52.038;4.640;2023-07-28T04:50:33;100611.19;;;18.15;100.00
67457;BME280;54319;52.038;4.640;2023-07-28T04:53:00;100615.88;;;18.15;100.00
67457;BME280;54319;52.038;4.640;2023-07-28T04:55:28;100603.69;;;18.11;100.00
67457;BME280;54319;52.038;4.640;2023-07-28T04:57:56;100594.53;;;18.00;100.00
67457;BME280;54319;52.038;4.640;2023-07-28T05:00:23;100597.06;;;18.06;100.00
67457;BME280;54319;52.038;4.640;2023-07-28T05:02:49;100604.00;;;18.14;100.00
67457;BME280;54319;52.038;4.640;2023-07-28T05:05:16;100601.25;;;18.14;100.00
67457;BME280;54319;52.038;4.640;2023-07-28T05:07:43;100613.16;;;18.20;100.00
67457;BME280;54319;52.038;4.640;2023-07-28T05:10:09;100597.63;;;18.14;100.00
67457;BME280;54319;52.038;4.640;2023-07-28T05:12:37;100619.78;;;18.24;100.00
67457;BME280;54319;52.038;4.640;2023-07-28T05:15:05;100620.34;;;18.26;100.00
67457;BME280;54319;52.038;4.640;2023-07-28T05:17:35;100613.97;;;18.26;100.00
67457;BME280;54319;52.038;4.640;2023-07-28T05:20:02;100610.66;;;18.23;100.00
67457;BME280;54319;52.038;4.640;2023-07-28T05:22:29;100621.16;;;18.27;100.00
67457;BME280;54319;52.038;4.640;2023-07-28T05:24:55;100622.56;;;18.29;100.00
67457;BME280;54319;52.038;4.640;2023-07-28T05:27:22;100624.22;;;18.30;100.00
67457;BME280;54319;52.038;4.640;2023-07-28T05:29:50;100613.72;;;18.27;100.00
67457;BME280;54319;52.038;4.640;2023-07-28T05:32:17;100619.53;;;18.31;100.00
67457;BME280;54319;52.038;4.640;2023-07-28T05:34:44;100627.31;;;18.39;100.00
67457;BME280;54319;52.038;4.640;2023-07-28T05:37:11;100625.88;;;18.31;100.00
67457;BME280;54319;52.038;4.640;2023-07-28T05:39:37;100635.84;;;18.37;100.00
67457;BME280;54319;52.038;4.640;2023-07-28T05:42:04;100597.94;;;18.12;100.00
67457;BME280;54319;52.038;4.640;2023-07-28T05:44:31;100636.69;;;18.38;100.00
67457;BME280;54319;52.038;4.640;2023-07-28T05:46:59;100625.59;;;18.33;100.00
67457;BME280;54319;52.038;4.640;2023-07-28T05:49:25;100640.84;;;18.46;100.00
67457;BME280;54319;52.038;4.640;2023-07-28T05:51:52;100649.13;;;18.46;100.00
67457;BME280;54319;52.038;4.640;2023-07-28T05:54:19;100645.81;;;18.49;100.00
67457;BME280;54319;52.038;4.640;2023-07-28T05:56:45;100650.25;;;18.50;100.00
67457;BME280;54319;52.038;4.640;2023-07-28T05:59:12;100652.44;;;18.48;100.00
67457;BME280;54319;52.038;4.640;2023-07-28T06:01:38;100640.81;;;18.35;100.00
67457;BME280;54319;52.038;4.640;2023-07-28T06:04:06;100663.81;;;18.51;100.00
67457;BME280;54319;52.038;4.640;2023-07-28T06:06:33;100653.00;;;18.50;100.00
67457;BME280;54319;52.038;4.640;2023-07-28T06:09:00;100639.16;;;18.40;100.00
67457;BME280;54319;52.038;4.640;2023-07-28T06:11:26;100646.94;;;18.48;100.00
67457;BME280;54319;52.038;4.640;2023-07-28T06:13:53;100662.16;;;18.50;100.00
67457;BME280;54319;52.038;4.640;2023-07-28T06:16:20;100639.47;;;18.38;100.00
67457;BME280;54319;52.038;4.640;2023-07-28T06:18:46;100664.91;;;18.56;100.00
67457;BME280;54319;52.038;4.640;2023-07-28T06:21:14;100666.59;;;18.57;100.00
67457;BME280;54319;52.038;4.640;2023-07-28T06:23:41;100674.63;;;18.58;100.00
67457;BME280;54319;52.038;4.640;2023-07-28T06:26:07;100674.63;;;18.58;100.00
67457;BME280;54319;52.038;4.640;2023-07-28T06:28:35;100638.88;;;18.36;100.00
67457;BME280;54319;52.038;4.640;2023-07-28T06:31:02;100687.59;;;18.63;100.00
67457;BME280;54319;52.038;4.640;2023-07-28T06:33:29;100670.16;;;18.52;100.00
67457;BME280;54319;52.038;4.640;2023-07-28T06:35:56;100681.25;;;18.62;100.00
67457;BME280;54319;52.038;4.640;2023-07-28T06:38:24;100666.28;;;18.53;100.00
67457;BME280;54319;52.038;4.640;2023-07-28T06:40:50;100685.69;;;18.69;100.00
67457;BME280;54319;52.038;4.640;2023-07-28T06:43:17;100698.41;;;18.75;100.00
67457;BME280;54319;52.038;4.640;2023-07-28T06:45:45;100690.94;;;18.70;100.00
67457;BME280;54319;52.038;4.640;2023-07-28T06:48:11;100687.38;;;18.80;100.00
67457;BME280;54319;52.038;4.640;2023-07-28T06:50:38;100698.19;;;18.92;100.00
67457;BME280;54319;52.038;4.640;2023-07-28T06:53:04;100692.94;;;18.90;100.00
67457;BME280;54319;52.038;4.640;2023-07-28T06:55:33;100696.03;;;18.99;100.00
67457;BME280;54319;52.038;4.640;2023-07-28T06:57:59;100691.63;;;19.03;100.00
67457;BME280;54319;52.038;4.640;2023-07-28T07:00:26;100679.75;;;19.03;100.00
67457;BME280;54319;52.038;4.640;2023-07-28T07:02:52;100712.94;;;19.18;100.00
67457;BME280;54319;52.038;4.640;2023-07-28T07:05:19;100706.31;;;19.19;100.00
67457;BME280;54319;52.038;4.640;2023-07-28T07:07:46;100714.91;;;19.28;100.00
67457;BME280;54319;52.038;4.640;2023-07-28T07:10:12;100712.69;;;19.30;100.00
67457;BME280;54319;52.038;4.640;2023-07-28T07:12:40;100707.41;;;19.29;100.00
67457;BME280;54319;52.038;4.640;2023-07-28T07:15:07;100724.84;;;19.45;100.00
67457;BME280;54319;52.038;4.640;2023-07-28T07:17:34;100727.63;;;19.50;100.00
67457;BME280;54319;52.038;4.640;2023-07-28T07:20:01;100731.53;;;19.54;100.00
67457;BME280;54319;52.038;4.640;2023-07-28T07:22:28;100689.72;;;19.19;100.00
67457;BME280;54319;52.038;4.640;2023-07-28T07:24:55;100729.56;;;19.55;100.00
67457;BME280;54319;52.038;4.640;2023-07-28T07:27:23;100742.84;;;19.63;100.00
67457;BME280;54319;52.038;4.640;2023-07-28T07:30:14;100756.16;;;19.71;100.00
67457;BME280;54319;52.038;4.640;2023-07-28T07:32:47;100741.75;;;19.69;100.00
67457;BME280;54319;52.038;4.640;2023-07-28T07:35:14;100738.16;;;19.79;100.00
67457;BME280;54319;52.038;4.640;2023-07-28T07:37:41;100737.91;;;19.75;100.00
67457;BME280;54319;52.038;4.640;2023-07-28T07:40:08;100749.50;;;19.88;100.00
67457;BME280;54319;52.038;4.640;2023-07-28T07:42:41;100740.69;;;19.91;100.00
67457;BME280;54319;52.038;4.640;2023-07-28T07:45:11;100747.59;;;19.99;100.00
67457;BME280;54319;52.038;4.640;2023-07-28T07:47:38;100756.47;;;20.01;100.00
67457;BME280;54319;52.038;4.640;2023-07-28T07:50:05;100753.13;;;19.99;100.00
67457;BME280;54319;52.038;4.640;2023-07-28T07:52:32;100757.84;;;19.98;100.00
67457;BME280;54319;52.038;4.640;2023-07-28T07:55:00;100734.03;;;19.92;100.00
67457;BME280;54319;52.038;4.640;2023-07-28T07:57:26;100757.53;;;20.20;100.00
67457;BME280;54319;52.038;4.640;2023-07-28T07:59:53;100744.47;;;20.36;100.00
67457;BME280;54319;52.038;4.640;2023-07-28T08:02:21;100758.50;;;20.76;100.00
67457;BME280;54319;52.038;4.640;2023-07-28T08:04:47;100756.47;;;21.03;100.00
67457;BME280;54319;52.038;4.640;2023-07-28T08:07:14;100756.84;;;21.36;100.00
67457;BME280;54319;52.038;4.640;2023-07-28T08:09:45;100761.69;;;21.60;98.46
67457;BME280;54319;52.038;4.640;2023-07-28T08:12:15;100749.31;;;21.81;96.43
67457;BME280;54319;52.038;4.640;2023-07-28T08:14:42;100754.94;;;21.71;95.54
67457;BME280;54319;52.038;4.640;2023-07-28T08:17:09;100764.03;;;21.77;97.08
67457;BME280;54319;52.038;4.640;2023-07-28T08:19:36;100757.16;;;22.04;96.13
67457;BME280;54319;52.038;4.640;2023-07-28T08:22:03;100759.13;;;22.57;94.00
67457;BME280;54319;52.038;4.640;2023-07-28T08:24:31;100738.25;;;23.03;86.45
67457;BME280;54319;52.038;4.640;2023-07-28T08:26:58;100765.19;;;23.65;89.22
67457;BME280;54319;52.038;4.640;2023-07-28T08:29:25;100760.69;;;23.12;86.66
67457;BME280;54319;52.038;4.640;2023-07-28T08:31:52;100767.75;;;23.23;86.95
67457;BME280;54319;52.038;4.640;2023-07-28T08:34:18;100749.16;;;22.99;84.84
67457;BME280;54319;52.038;4.640;2023-07-28T08:36:46;100753.88;;;23.42;87.71
67457;BME280;54319;52.038;4.640;2023-07-28T08:39:13;100763.00;;;23.81;82.01
67457;BME280;54319;52.038;4.640;2023-07-28T08:41:40;100765.16;;;24.04;82.50
67457;BME280;54319;52.038;4.640;2023-07-28T08:44:09;100755.59;;;24.10;80.16
67457;BME280;54319;52.038;4.640;2023-07-28T08:46:45;100773.03;;;24.16;78.36
67457;BME280;54319;52.038;4.640;2023-07-28T08:49:12;100780.50;;;24.34;79.62
67457;BME280;54319;52.038;4.640;2023-07-28T08:51:41;100774.94;;;24.34;80.94
67457;BME280;54319;52.038;4.640;2023-07-28T08:54:09;100783.56;;;24.19;78.67
67457;BME280;54319;52.038;4.640;2023-07-28T08:56:39;100767.03;;;24.08;80.84
67457;BME280;54319;52.038;4.640;2023-07-28T08:59:06;100773.22;;;24.05;82.02
67457;BME280;54319;52.038;4.640;2023-07-28T09:01:51;100782.28;;;23.78;80.65
67457;BME280;54319;52.038;4.640;2023-07-28T09:04:19;100783.09;;;23.21;83.07
67457;BME280;54319;52.038;4.640;2023-07-28T09:06:46;100770.72;;;22.89;86.87
67457;BME280;54319;52.038;4.640;2023-07-28T09:09:15;100782.06;;;22.92;88.18
67457;BME280;54319;52.038;4.640;2023-07-28T09:11:46;100779.31;;;23.11;87.31
67457;BME280;54319;52.038;4.640;2023-07-28T09:14:17;100782.94;;;23.12;85.00
67457;BME280;54319;52.038;4.640;2023-07-28T09:16:44;100782.00;;;22.97;84.87
67457;BME280;54319;52.038;4.640;2023-07-28T09:19:50;100779.84;;;23.13;84.89
67457;BME280;54319;52.038;4.640;2023-07-28T09:22:17;100783.16;;;23.16;85.09
67457;BME280;54319;52.038;4.640;2023-07-28T09:24:46;100792.28;;;23.21;84.27
67457;BME280;54319;52.038;4.640;2023-07-28T09:27:22;100752.78;;;23.00;85.97
67457;BME280;54319;52.038;4.640;2023-07-28T09:29:50;100790.91;;;23.19;84.65
67457;BME280;54319;52.038;4.640;2023-07-28T09:32:35;100782.38;;;23.10;86.25
67457;BME280;54319;52.038;4.640;2023-07-28T09:35:10;100768.84;;;22.84;86.85
67457;BME280;54319;52.038;4.640;2023-07-28T09:37:39;100799.88;;;22.91;88.11
67457;BME280;54319;52.038;4.640;2023-07-28T09:40:09;100792.31;;;22.73;86.35
67457;BME280;54319;52.038;4.640;2023-07-28T09:42:37;100800.09;;;22.76;88.11
67457;BME280;54319;52.038;4.640;2023-07-28T09:45:05;100799.66;;;22.63;88.24
67457;BME280;54319;52.038;4.640;2023-07-28T09:47:33;100786.56;;;22.39;89.92
67457;BME280;54319;52.038;4.640;2023-07-28T09:50:01;100789.72;;;22.27;89.20
67457;BME280;54319;52.038;4.640;2023-07-28T09:52:33;100796.63;;;22.30;89.77
67457;BME280;54319;52.038;4.640;2023-07-28T09:55:05;100808.78;;;22.39;91.65
67457;BME280;54319;52.038;4.640;2023-07-28T09:57:37;100805.47;;;22.37;92.07
67457;BME280;54319;52.038;4.640;2023-07-28T10:00:07;100817.34;;;22.43;89.71
67457;BME280;54319;52.038;4.640;2023-07-28T10:02:36;100813.75;;;22.43;88.34
67457;BME280;54319;52.038;4.640;2023-07-28T10:05:05;100820.63;;;22.50;91.25
67457;BME280;54319;52.038;4.640;2023-07-28T10:07:32;100817.16;;;22.34;90.61
67457;BME280;54319;52.038;4.640;2023-07-28T10:10:08;100805.81;;;22.31;90.20
67457;BME280;54319;52.038;4.640;2023-07-28T10:12:48;100833.50;;;22.41;89.97
67457;BME280;54319;52.038;4.640;2023-07-28T10:15:17;100824.84;;;22.48;88.81
67457;BME280;54319;52.038;4.640;2023-07-28T10:17:45;100820.88;;;22.54;89.83
67457;BME280;54319;52.038;4.640;2023-07-28T10:20:32;100823.81;;;22.38;88.96
67457;BME280;54319;52.038;4.640;2023-07-28T10:23:07;100824.78;;;22.53;89.47
67457;BME280;54319;52.038;4.640;2023-07-28T10:25:40;100828.19;;;22.45;88.66
67457;BME280;54319;52.038;4.640;2023-07-28T10:28:27;100822.28;;;22.22;87.39
67457;BME280;54319;52.038;4.640;2023-07-28T10:31:02;100828.31;;;22.29;90.07
67457;BME280;54319;52.038;4.640;2023-07-28T10:33:31;100827.25;;;22.25;89.25
67457;BME280;54319;52.038;4.640;2023-07-28T10:35:59;100842.50;;;22.27;89.21
67457;BME280;54319;52.038;4.640;2023-07-28T10:38:33;100833.00;;;22.34;89.42
67457;BME280;54319;52.038;4.640;2023-07-28T10:41:06;100825.38;;;22.50;89.86
67457;BME280;54319;52.038;4.640;2023-07-28T10:43:36;100831.88;;;22.64;88.06
67457;BME280;54319;52.038;4.640;2023-07-28T10:46:10;100824.72;;;22.58;87.64
67457;BME280;54319;52.038;4.640;2023-07-28T10:48:41;100833.31;;;22.62;85.53
67457;BME280;54319;52.038;4.640;2023-07-28T10:51:09;100837.44;;;22.64;85.11
67457;BME280;54319;52.038;4.640;2023-07-28T10:53:37;100813.72;;;22.48;87.08
67457;BME280;54319;52.038;4.640;2023-07-28T10:56:04;100830.81;;;22.60;86.77
67457;BME280;54319;52.038;4.640;2023-07-28T10:58:34;100820.63;;;22.50;87.39
67457;BME280;54319;52.038;4.640;2023-07-28T11:01:02;100835.13;;;22.72;86.69
67457;BME280;54319;52.038;4.640;2023-07-28T11:03:56;100844.19;;;22.82;87.24
67457;BME280;54319;52.038;4.640;2023-07-28T11:06:23;100845.19;;;22.92;86.99
67457;BME280;54319;52.038;4.640;2023-07-28T11:08:51;100838.75;;;22.96;84.98
67457;BME280;54319;52.038;4.640;2023-07-28T11:11:18;100839.59;;;22.97;84.93
67457;BME280;54319;52.038;4.640;2023-07-28T11:13:52;100844.16;;;23.12;83.46
67457;BME280;54319;52.038;4.640;2023-07-28T11:16:22;100834.59;;;22.75;83.49
67457;BME280;54319;52.038;4.640;2023-07-28T11:18:49;100849.16;;;23.10;83.16
67457;BME280;54319;52.038;4.640;2023-07-28T11:21:17;100837.69;;;23.17;81.65
67457;BME280;54319;52.038;4.640;2023-07-28T11:23:45;100825.63;;;23.26;80.34
67457;BME280;54319;52.038;4.640;2023-07-28T11:26:13;100841.06;;;23.57;79.40
67457;BME280;54319;52.038;4.640;2023-07-28T11:28:40;100841.13;;;23.71;79.87
67457;BME280;54319;52.038;4.640;2023-07-28T11:31:07;100845.72;;;23.81;78.73
67457;BME280;54319;52.038;4.640;2023-07-28T11:33:36;100820.75;;;23.56;78.49
67457;BME280;54319;52.038;4.640;2023-07-28T11:36:03;100845.38;;;23.68;77.96
67457;BME280;54319;52.038;4.640;2023-07-28T11:38:30;100827.81;;;23.49;77.40
67457;BME280;54319;52.038;4.640;2023-07-28T11:40:58;100850.19;;;23.63;77.35
67457;BME280;54319;52.038;4.640;2023-07-28T11:43:26;100838.72;;;23.64;76.94
67457;BME280;54319;52.038;4.640;2023-07-28T11:46:00;100843.47;;;23.64;75.15
67457;BME280;54319;52.038;4.640;2023-07-28T11:48:29;100858.09;;;23.75;75.39
67457;BME280;54319;52.038;4.640;2023-07-28T11:50:58;100841.81;;;23.82;75.59
67457;BME280;54319;52.038;4.640;2023-07-28T11:53:26;100860.47;;;23.81;75.49
67457;BME280;54319;52.038;4.640;2023-07-28T11:55:54;100853.56;;;23.98;74.67
67457;BME280;54319;52.038;4.640;2023-07-28T11:58:20;100857.22;;;23.93;75.61
67457;BME280;54319;52.038;4.640;2023-07-28T12:00:49;100832.53;;;23.67;76.62
67457;BME280;54319;52.038;4.640;2023-07-28T12:03:16;100835.94;;;23.64;75.55
67457;BME280;54319;52.038;4.640;2023-07-28T12:06:05;100856.97;;;23.76;75.16
67457;BME280;54319;52.038;4.640;2023-07-28T12:08:35;100862.38;;;23.86;76.20
67457;BME280;54319;52.038;4.640;2023-07-28T12:11:02;100858.63;;;23.77;76.08
67457;BME280;54319;52.038;4.640;2023-07-28T12:13:29;100865.16;;;23.86;76.17
67457;BME280;54319;52.038;4.640;2023-07-28T12:15:55;100864.91;;;23.82;76.18
67457;BME280;54319;52.038;4.640;2023-07-28T12:18:22;100864.63;;;23.65;74.99
67457;BME280;54319;52.038;4.640;2023-07-28T12:20:52;100864.72;;;23.79;74.70
67457;BME280;54319;52.038;4.640;2023-07-28T12:23:21;100868.09;;;23.56;76.16
67457;BME280;54319;52.038;4.640;2023-07-28T12:25:49;100873.22;;;23.68;76.04
67457;BME280;54319;52.038;4.640;2023-07-28T12:28:16;100869.34;;;23.83;76.86
67457;BME280;54319;52.038;4.640;2023-07-28T12:30:43;100859.22;;;23.93;74.25
67457;BME280;54319;52.038;4.640;2023-07-28T12:33:10;100853.50;;;24.03;72.98
67457;BME280;54319;52.038;4.640;2023-07-28T12:35:37;100871.34;;;24.02;75.25
67457;BME280;54319;52.038;4.640;2023-07-28T12:38:04;100873.00;;;24.03;76.18
67457;BME280;54319;52.038;4.640;2023-07-28T12:40:37;100877.34;;;23.90;74.82
67457;BME280;54319;52.038;4.640;2023-07-28T12:43:04;100875.16;;;23.68;76.50
67457;BME280;54319;52.038;4.640;2023-07-28T12:45:31;100866.66;;;23.59;75.96
67457;BME280;54319;52.038;4.640;2023-07-28T12:47:57;100863.25;;;23.43;76.37
67457;BME280;54319;52.038;4.640;2023-07-28T12:50:24;100869.81;;;23.91;75.20